Time;durP1;ratioP1;P1;durP2;ratioP2;P2;SDS_P1;SDS_P2;PMS_P1;PMS_P2;Temp;Humidity;BMP_temperature;BMP_pressure;BME280_temperature;BME280_humidity;BME280_pressure;Samples;Min_cycle;Max_cycle;Signal;HPM_P1;HPM_P2
2022/11/04 00:01:53;;;;;;;56.50;28.52;;;;;;;4.45;92.44;97752.80;1765170;81;21026;-68
2022/11/04 00:04:24;;;;;;;60.20;28.42;;;;;;;4.49;92.58;97751.04;1764918;81;21281;-67
2022/11/04 00:06:52;;;;;;;69.55;28.62;;;;;;;4.51;92.32;97748.38;1765129;81;20955;-67
2022/11/04 00:09:22;;;;;;;70.90;29.23;;;;;;;4.49;92.05;97741.86;1762677;80;20971;-68
2022/11/04 00:14:35;;;;;;;70.42;29.85;;;;;;;4.36;92.43;97734.08;1722631;82;20929;-67
2022/11/04 00:17:18;;;;;;;68.70;28.87;;;;;;;4.33;92.18;97727.99;1742118;82;21434;-67
2022/11/04 00:33:53;;;;;;;71.07;28.80;;;;;;;4.29;92.93;97720.59;1742325;82;21373;-68
2022/11/04 00:36:21;;;;;;;68.33;30.77;;;;;;;4.22;92.08;97721.09;1741803;82;21397;-68
2022/11/04 00:38:48;;;;;;;74.82;30.10;;;;;;;4.16;92.33;97725.52;1719118;82;20960;-67
2022/11/04 00:41:26;;;;;;;72.78;29.95;;;;;;;4.15;92.40;97720.70;1740760;82;21040;-67
2022/11/04 00:43:59;;;;;;;78.90;29.77;;;;;;;4.14;92.48;97718.96;1721845;82;21027;-68
2022/11/04 00:46:28;;;;;;;75.08;27.50;;;;;;;4.08;92.30;97717.70;1741831;82;20987;-68
2022/11/04 00:48:55;;;;;;;72.42;28.27;;;;;;;4.04;92.28;97722.11;1741951;81;21019;-68
2022/11/04 00:51:21;;;;;;;60.05;27.17;;;;;;;3.98;93.20;97716.89;1742144;82;20975;-68
2022/11/04 00:53:49;;;;;;;69.03;28.60;;;;;;;3.90;92.81;97718.27;1741735;81;21405;-68
2022/11/04 00:56:15;;;;;;;57.65;27.90;;;;;;;3.87;92.51;97718.73;1741993;82;20956;-68
2022/11/04 00:58:42;;;;;;;57.62;29.30;;;;;;;3.83;93.04;97718.75;1742048;82;20968;-68
2022/11/04 01:01:11;;;;;;;63.65;28.85;;;;;;;3.88;93.19;97711.29;1741816;82;21008;-67
2022/11/04 01:03:38;;;;;;;76.35;27.37;;;;;;;3.90;92.88;97716.10;1742027;82;21003;-68
2022/11/04 01:06:05;;;;;;;57.80;26.10;;;;;;;3.89;93.54;97716.53;1741791;81;21994;-68
2022/11/04 01:08:31;;;;;;;70.80;26.07;;;;;;;3.86;92.93;97704.74;1742203;82;20968;-68
2022/11/04 01:11:03;;;;;;;54.42;25.45;;;;;;;3.85;93.22;97705.63;1687543;83;21430;-68
2022/11/04 01:13:30;;;;;;;54.42;26.10;;;;;;;3.84;92.94;97710.45;1694551;84;21075;-68
2022/11/04 01:16:03;;;;;;;56.40;24.92;;;;;;;3.82;92.76;97703.05;1749983;82;20920;-68
2022/11/04 01:18:29;;;;;;;48.68;23.85;;;;;;;3.81;93.38;97698.23;1749830;82;20976;-69
2022/11/04 01:21:05;;;;;;;45.70;23.42;;;;;;;3.75;93.20;97696.98;1749977;81;21382;-68
2022/11/04 01:23:34;;;;;;;48.35;23.40;;;;;;;3.72;93.51;97696.10;1689852;83;21482;-68
2022/11/04 01:26:06;;;;;;;44.03;23.98;;;;;;;3.73;93.39;97696.09;1690251;85;21485;-68
2022/11/04 01:28:33;;;;;;;44.98;23.40;;;;;;;3.75;93.58;97698.29;1675609;85;21011;-67
2022/11/04 01:31:09;;;;;;;40.35;22.55;;;;;;;3.81;93.62;97690.80;1694427;85;21009;-68
2022/11/04 01:33:37;;;;;;;41.53;22.65;;;;;;;3.81;93.69;97681.63;1724193;83;20961;-67
2022/11/04 01:36:05;;;;;;;41.95;21.48;;;;;;;3.85;93.76;97681.19;1705228;83;21012;-68
2022/11/04 01:38:33;;;;;;;42.50;21.10;;;;;;;3.89;93.66;97673.70;1724920;82;20945;-68
2022/11/04 01:41:00;;;;;;;42.00;20.55;;;;;;;3.93;93.56;97675.42;1705509;83;21028;-67
2022/11/04 01:43:52;;;;;;;35.28;21.05;;;;;;;3.99;93.83;97669.27;1725158;83;21383;-67
2022/11/04 01:46:46;;;;;;;37.53;19.45;;;;;;;4.07;93.86;97670.08;1705836;84;20996;-68
2022/11/04 01:49:30;;;;;;;38.80;19.00;;;;;;;4.06;93.26;97660.45;1704507;84;21016;-68
2022/11/04 01:52:07;;;;;;;38.30;19.80;;;;;;;3.92;92.43;97651.40;1706013;84;20984;-68
2022/11/04 01:54:36;;;;;;;33.42;18.57;;;;;;;3.80;92.67;97649.31;1724634;83;21000;-67
2022/11/04 01:57:06;;;;;;;43.25;19.77;;;;;;;3.77;92.84;97648.45;1686596;84;21071;-67
2022/11/04 01:59:37;;;;;;;30.27;19.00;;;;;;;3.75;93.32;97645.86;1705338;84;20961;-67
2022/11/04 02:02:05;;;;;;;35.65;18.73;;;;;;;3.72;93.07;97645.87;1705555;84;21430;-67
2022/11/04 02:04:31;;;;;;;34.40;18.23;;;;;;;3.65;93.04;97647.67;1705991;84;21090;-67
2022/11/04 02:07:07;;;;;;;37.78;20.17;;;;;;;3.60;93.27;97640.71;1705702;84;21012;-67
2022/11/04 02:09:36;;;;;;;39.33;19.67;;;;;;;3.58;93.29;97644.68;1724639;83;21024;-67
2022/11/04 02:14:52;;;;;;;29.50;16.87;;;;;;;3.51;92.84;97635.11;1765463;81;21357;-68
2022/11/04 02:17:30;;;;;;;31.02;16.65;;;;;;;3.41;92.31;97636.94;1764514;80;21356;-68
2022/11/04 02:20:20;;;;;;;31.00;16.85;;;;;;;3.37;92.28;97636.52;1764956;81;21420;-67
2022/11/04 02:23:12;;;;;;;30.08;15.63;;;;;;;3.32;91.85;97631.75;1746629;80;20959;-66
2022/11/04 02:26:20;;;;;;;31.75;15.75;;;;;;;3.20;91.56;97628.31;1764776;80;21452;-67
2022/11/04 02:29:09;;;;;;;30.75;15.75;;;;;;;3.11;91.80;97621.84;1765050;81;21014;-67
2022/11/04 02:31:46;;;;;;;27.02;15.00;;;;;;;3.04;91.64;97615.77;1764277;81;21014;-67
2022/11/04 02:34:42;;;;;;;27.45;14.95;;;;;;;3.04;92.13;97606.61;1694839;83;21001;-68
2022/11/04 02:37:50;;;;;;;28.83;15.03;;;;;;;3.01;91.53;97602.25;1750864;80;20979;-68
2022/11/04 02:40:25;;;;;;;29.63;15.70;;;;;;;2.97;91.57;97607.08;1740171;81;21416;-67
2022/11/04 02:43:26;;;;;;;34.45;16.67;;;;;;;3.00;92.04;97607.49;1765145;81;20951;-67
2022/11/04 02:46:03;;;;;;;28.35;14.65;;;;;;;3.01;91.54;97604.88;1765219;80;20936;-67
2022/11/04 02:48:41;;;;;;;29.72;14.73;;;;;;;3.00;91.53;97605.73;1764717;80;20986;-67
2022/11/04 02:51:16;;;;;;;31.85;16.40;;;;;;;2.96;91.38;97602.72;1764135;80;21002;-67
2022/11/04 02:54:03;;;;;;;33.75;16.57;;;;;;;2.91;91.04;97597.95;1765302;81;20970;-68
2022/11/04 02:56:34;;;;;;;30.90;14.20;;;;;;;2.83;91.20;97602.34;1765057;81;20976;-67
2022/11/04 02:59:08;;;;;;;27.98;13.38;;;;;;;2.86;91.53;97596.65;1765180;81;20967;-67
2022/11/04 03:01:40;;;;;;;26.87;13.28;;;;;;;2.89;91.24;97597.07;1764667;81;20939;-68
2022/11/04 03:04:18;;;;;;;23.47;12.53;;;;;;;2.96;91.54;97607.08;1765189;81;21448;-67
2022/11/04 03:06:48;;;;;;;29.80;13.43;;;;;;;3.01;91.36;97607.92;1765259;80;20975;-67
2022/11/04 03:09:17;;;;;;;29.87;12.65;;;;;;;3.01;91.02;97601.38;1765211;81;20995;-67
2022/11/04 03:11:49;;;;;;;28.57;13.28;;;;;;;2.98;91.06;97599.64;1749150;81;20964;-67
2022/11/04 03:14:27;;;;;;;28.83;12.98;;;;;;;3.00;91.16;97594.41;1741644;82;21779;-67
2022/11/04 03:16:59;;;;;;;32.13;14.58;;;;;;;3.06;91.64;97588.27;1742402;82;20932;-67
2022/11/04 03:19:53;;;;;;;28.12;14.33;;;;;;;3.12;91.49;97591.70;1742166;82;20968;-67
2022/11/04 03:22:22;;;;;;;;;;;;;;;3.16;91.67;97584.72;1725537;82;20960;-67
2022/11/04 03:24:50;;;;;;;28.52;13.93;;;;;;;3.21;91.68;97588.59;1742140;82;20329;-68
2022/11/04 03:27:25;;;;;;;35.28;15.43;;;;;;;3.15;91.14;97593.00;1741792;82;21003;-67
2022/11/04 03:30:00;;;;;;;35.98;15.95;;;;;;;3.07;90.97;97586.08;1742004;82;20975;-67
2022/11/04 03:32:57;;;;;;;37.63;16.15;;;;;;;3.01;91.00;97586.97;1741804;82;20991;-68
2022/11/04 03:35:27;;;;;;;39.95;17.05;;;;;;;2.97;91.67;97578.27;1742156;81;20932;-68
2022/11/04 03:37:54;;;;;;;36.93;16.25;;;;;;;2.95;91.53;97580.02;1742221;82;20964;-66
2022/11/04 03:40:21;;;;;;;38.38;16.45;;;;;;;2.93;92.05;97567.81;1741926;82;21318;-67
2022/11/04 03:42:55;;;;;;;56.60;18.62;;;;;;;2.98;92.56;97572.58;1718836;82;20956;-67
2022/11/04 03:45:22;;;;;;;42.33;16.43;;;;;;;3.00;92.38;97561.22;1742302;81;22144;-67
2022/11/04 03:47:50;;;;;;;37.03;17.15;;;;;;;3.01;92.00;97553.83;1742004;82;20996;-68
2022/11/04 03:50:30;;;;;;;46.58;18.55;;;;;;;3.04;92.66;97553.78;1741825;82;21031;-67
2022/11/04 03:52:58;;;;;;;51.25;19.15;;;;;;;3.07;92.71;97551.58;1742014;82;21289;-67
2022/11/04 03:56:05;;;;;;;53.50;18.95;;;;;;;3.08;92.62;97550.73;1742075;82;21410;-68
2022/11/04 03:59:06;;;;;;;55.95;19.77;;;;;;;3.10;92.79;97554.62;1742488;82;20999;-68
2022/11/04 04:01:55;;;;;;;47.85;17.73;;;;;;;3.06;92.89;97553.78;1741699;82;20978;-67
2022/11/04 04:04:35;;;;;;;71.17;17.30;;;;;;;3.10;92.50;97555.50;1719345;82;20928;-67
2022/11/04 04:07:13;;;;;;;51.98;18.00;;;;;;;3.06;92.62;97552.92;1742210;82;20972;-67
2022/11/04 04:09:45;;;;;;;40.15;16.67;;;;;;;3.00;92.85;97553.83;1741968;82;20976;-67
2022/11/04 04:12:26;;;;;;;49.23;15.60;;;;;;;2.93;92.65;97558.66;1740584;81;22164;-67
2022/11/04 04:14:58;;;;;;;57.48;16.00;;;;;;;2.85;93.01;97560.01;1738883;81;20952;-67
2022/11/04 04:17:42;;;;;;;50.95;15.95;;;;;;;2.75;92.74;97560.05;1741799;81;20975;-67
2022/11/04 04:20:18;;;;;;;59.33;15.38;;;;;;;2.68;93.27;97559.67;1741580;82;20968;-67
2022/11/04 04:23:00;;;;;;;52.25;15.65;;;;;;;2.68;93.10;97557.48;1740607;81;21094;-67
2022/11/04 04:28:17;;;;;;;65.72;14.85;;;;;;;2.69;93.41;97548.32;1742257;82;20932;-67
2022/11/04 04:30:45;;;;;;;48.68;15.23;;;;;;;2.73;93.17;97551.36;1721672;81;20996;-67
2022/11/04 04:33:16;;;;;;;41.35;14.98;;;;;;;2.73;93.13;97550.05;1742075;82;21438;-67
2022/11/04 04:35:50;;;;;;;37.35;14.75;;;;;;;2.79;93.31;97553.51;1742210;82;21041;-67
2022/11/04 04:47:18;;;;;;;30.90;13.68;;;;;;;3.12;93.73;97534.55;1741981;82;21071;-67
2022/11/04 04:49:57;;;;;;;36.42;15.13;;;;;;;3.18;93.42;97526.64;1742509;81;20948;-67
2022/11/04 04:52:30;;;;;;;32.42;13.78;;;;;;;3.23;93.87;97527.90;1741442;82;20952;-68
2022/11/04 04:54:57;;;;;;;31.80;13.90;;;;;;;3.31;93.92;97544.44;1742339;81;20995;-67
2022/11/04 04:57:24;;;;;;;30.37;12.60;;;;;;;3.40;94.02;97536.94;1742452;82;21169;-67
2022/11/04 04:59:50;;;;;;;36.63;15.03;;;;;;;3.49;93.98;97534.24;1741636;82;21422;-67
2022/11/04 05:02:17;;;;;;;33.50;14.45;;;;;;;3.55;93.59;97544.69;1742028;82;20999;-67
2022/11/04 05:04:43;;;;;;;33.73;13.78;;;;;;;3.60;93.66;97542.02;1741887;82;21421;-67
2022/11/04 05:07:10;;;;;;;35.58;14.63;;;;;;;3.60;93.59;97544.64;1742237;82;20961;-67
2022/11/04 05:09:36;;;;;;;42.53;14.53;;;;;;;3.59;93.52;97545.53;1742396;82;20940;-67
2022/11/04 05:12:03;;;;;;;43.33;15.18;;;;;;;3.54;93.65;97540.77;1759449;80;20998;-67
2022/11/04 05:14:30;;;;;;;35.08;16.42;;;;;;;3.53;93.76;97539.04;1764941;81;20971;-67
2022/11/04 05:16:57;;;;;;;41.98;14.93;;;;;;;3.53;93.83;97537.73;1765383;81;20990;-68
2022/11/04 05:19:24;;;;;;;41.28;16.30;;;;;;;3.51;93.62;97537.73;1765063;80;21006;-67
2022/11/04 05:21:51;;;;;;;38.13;16.67;;;;;;;3.45;93.24;97536.48;1765395;81;20900;-67
2022/11/04 05:24:17;;;;;;;45.03;15.25;;;;;;;3.41;93.53;97539.55;1764884;80;21026;-68
2022/11/04 05:26:44;;;;;;;43.78;15.00;;;;;;;3.40;93.88;97549.61;1764924;81;21022;-67
2022/11/04 05:29:11;;;;;;;43.40;14.25;;;;;;;3.30;93.94;97561.92;1765616;81;20939;-67
2022/11/04 05:31:38;;;;;;;41.95;14.68;;;;;;;3.20;93.62;97554.98;1765008;81;20982;-67
2022/11/04 05:34:05;;;;;;;42.15;15.83;;;;;;;3.09;94.16;97549.84;1765160;81;20904;-67
2022/11/04 05:36:32;;;;;;;37.70;16.12;;;;;;;3.05;93.78;97557.28;1764702;81;21046;-67
2022/11/04 05:38:59;;;;;;;47.93;18.20;;;;;;;3.04;93.85;97549.86;1765373;81;20939;-67
2022/11/04 05:41:26;;;;;;;48.85;16.80;;;;;;;3.05;93.83;97540.27;1765095;80;20940;-67
2022/11/04 05:43:55;;;;;;;48.17;18.20;;;;;;;3.10;93.98;97539.79;1765247;81;20978;-67
2022/11/04 05:46:23;;;;;;;43.42;17.85;;;;;;;3.14;93.97;97540.63;1765354;81;20990;-67
2022/11/04 05:48:50;;;;;;;47.08;17.55;;;;;;;3.21;94.36;97548.89;1765206;81;20943;-67
2022/11/04 05:51:22;;;;;;;48.20;17.62;;;;;;;3.27;94.37;97551.45;1765216;81;21039;-67
2022/11/04 05:53:49;;;;;;;45.05;18.45;;;;;;;3.26;94.38;97553.65;1765114;80;20955;-67
2022/11/04 05:56:16;;;;;;;50.63;19.50;;;;;;;3.25;93.78;97553.66;1765036;81;20963;-68
2022/11/04 05:58:42;;;;;;;47.15;17.42;;;;;;;3.26;94.17;97553.65;1765168;81;21431;-67
2022/11/04 06:01:29;;;;;;;46.53;20.62;;;;;;;3.25;93.74;97543.18;1765227;80;20947;-67
2022/11/04 06:03:58;;;;;;;43.20;19.12;;;;;;;3.28;94.27;97544.02;1765466;81;21429;-67
2022/11/04 06:06:29;;;;;;;45.80;18.12;;;;;;;3.36;94.74;97547.04;1765133;81;21396;-67
2022/11/04 06:08:57;;;;;;;53.90;19.70;;;;;;;3.40;94.29;97545.67;1764856;81;20978;-67
2022/11/04 06:11:26;;;;;;;59.35;17.55;;;;;;;3.42;94.33;97549.59;1762150;81;21453;-67
2022/11/04 06:13:56;;;;;;;55.12;18.05;;;;;;;3.42;94.02;97546.98;1741896;82;20996;-67
2022/11/04 06:16:24;;;;;;;44.48;18.45;;;;;;;3.39;93.94;97549.19;1741782;82;20968;-67
2022/11/04 06:18:51;;;;;;;46.55;18.65;;;;;;;3.38;93.91;97544.83;1741993;82;21000;-68
2022/11/04 06:21:26;;;;;;;49.55;19.35;;;;;;;3.45;93.98;97538.22;1741961;82;20980;-67
2022/11/04 06:23:58;;;;;;;40.73;18.32;;;;;;;3.51;94.01;97544.72;1742170;82;21042;-67
2022/11/04 06:26:26;;;;;;;47.27;19.67;;;;;;;3.58;94.07;97537.25;1741895;82;20948;-67
2022/11/04 06:28:53;;;;;;;36.77;16.97;;;;;;;3.70;94.28;97536.27;1742090;82;20968;-67
2022/11/04 06:31:20;;;;;;;52.70;17.45;;;;;;;3.74;93.71;97530.55;1741896;82;21410;-69
2022/11/04 06:33:48;;;;;;;39.38;17.30;;;;;;;3.75;94.09;97536.20;1742056;82;20940;-68
2022/11/04 06:36:16;;;;;;;49.45;18.57;;;;;;;3.77;94.05;97537.93;1742058;82;20960;-68
2022/11/04 06:38:42;;;;;;;45.00;19.65;;;;;;;3.87;94.51;97533.48;1742045;82;21019;-68
2022/11/04 06:41:13;;;;;;;38.83;18.73;;;;;;;3.95;94.46;97525.53;1741793;82;20972;-68
2022/11/04 06:43:40;;;;;;;41.40;19.42;;;;;;;4.02;94.39;97521.09;1742065;82;21331;-68
2022/11/04 06:46:23;;;;;;;51.02;20.77;;;;;;;4.17;94.99;97517.41;1741812;82;21016;-68
2022/11/04 06:48:49;;;;;;;51.92;22.13;;;;;;;4.28;94.76;97518.15;1729052;82;20925;-68
2022/11/04 06:51:16;;;;;;;44.98;19.07;;;;;;;4.40;94.63;97522.38;1741890;82;20960;-68
2022/11/04 06:53:42;;;;;;;42.65;18.15;;;;;;;4.51;94.67;97534.49;1742063;82;20971;-68
2022/11/04 06:56:09;;;;;;;44.13;17.80;;;;;;;4.62;94.41;97529.53;1741804;82;20980;-68
2022/11/04 06:58:35;;;;;;;45.92;19.40;;;;;;;4.62;93.24;97535.25;1741446;82;21051;-68
2022/11/04 07:01:02;;;;;;;41.63;17.67;;;;;;;4.57;93.41;97533.97;1742135;82;21023;-69
2022/11/04 07:03:30;;;;;;;42.75;18.98;;;;;;;4.58;93.73;97532.23;1721249;82;21651;-68
2022/11/04 07:05:57;;;;;;;41.00;19.15;;;;;;;4.59;93.82;97531.34;1742075;81;20980;-68
2022/11/04 07:08:23;;;;;;;47.83;19.42;;;;;;;4.64;93.76;97520.33;1742012;82;20983;-66
2022/11/04 07:10:50;;;;;;;41.65;19.23;;;;;;;4.69;93.84;97518.97;1741805;81;20952;-66
2022/11/04 07:13:17;;;;;;;42.25;19.45;;;;;;;4.78;93.73;97516.66;1744892;80;21035;-66
2022/11/04 07:15:43;;;;;;;39.18;19.48;;;;;;;4.80;93.17;97517.48;1741715;82;21047;-66
2022/11/04 07:18:10;;;;;;;42.53;19.37;;;;;;;4.80;93.10;97520.11;1741563;82;20987;-67
2022/11/04 07:20:37;;;;;;;40.78;19.40;;;;;;;4.74;92.55;97514.53;1741921;82;21031;-67
2022/11/04 07:23:03;;;;;;;38.45;18.23;;;;;;;4.70;92.81;97504.95;1741743;82;20960;-67
2022/11/04 07:25:30;;;;;;;39.25;18.62;;;;;;;4.71;93.01;97506.25;1742128;82;20956;-68
2022/11/04 07:27:57;;;;;;;42.00;19.70;;;;;;;4.74;92.87;97497.46;1742059;82;21023;-67
2022/11/04 07:30:23;;;;;;;38.08;18.95;;;;;;;4.83;93.35;97497.33;1742026;82;21362;-67
2022/11/04 07:32:49;;;;;;;38.58;19.15;;;;;;;4.92;93.40;97497.63;1741881;82;21023;-67
2022/11/04 07:35:16;;;;;;;39.45;19.42;;;;;;;5.03;93.17;97497.48;1742313;82;21425;-67
2022/11/04 07:37:43;;;;;;;38.85;18.80;;;;;;;5.06;92.45;97501.82;1742243;82;20909;-68
2022/11/04 07:40:11;;;;;;;39.83;19.55;;;;;;;5.16;93.08;97494.21;1741499;82;20985;-68
2022/11/04 07:42:37;;;;;;;43.08;19.17;;;;;;;5.29;93.01;97487.00;1742014;82;21050;-66
2022/11/04 07:45:07;;;;;;;38.98;19.87;;;;;;;5.35;92.60;97487.34;1742222;82;20988;-67
2022/11/04 07:47:33;;;;;;;45.17;19.95;;;;;;;5.44;92.60;97484.53;1742015;82;20933;-68
2022/11/04 07:50:00;;;;;;;39.30;19.75;;;;;;;5.47;92.17;97482.30;1741499;82;20996;-68
2022/11/04 07:52:27;;;;;;;39.60;20.08;;;;;;;5.46;91.77;97489.77;1742099;82;21302;-67
2022/11/04 07:54:53;;;;;;;40.65;20.95;;;;;;;5.43;91.26;97490.69;1742051;82;21393;-67
2022/11/04 07:57:20;;;;;;;41.88;20.48;;;;;;;5.41;90.98;97489.40;1741999;82;20968;-68
2022/11/04 07:59:46;;;;;;;44.10;22.10;;;;;;;5.41;91.61;97495.97;1741710;82;20944;-68
2022/11/04 08:02:13;;;;;;;41.23;21.75;;;;;;;5.46;91.63;97481.45;1740952;82;21031;-68
2022/11/04 08:04:39;;;;;;;43.55;21.87;;;;;;;5.47;91.46;97472.67;1741840;82;20952;-68
2022/11/04 08:07:09;;;;;;;36.70;21.42;;;;;;;5.52;91.37;97478.71;1742171;82;20917;-67
2022/11/04 08:09:36;;;;;;;48.45;22.95;;;;;;;5.52;91.27;97470.83;1741970;81;20976;-68
2022/11/04 08:12:04;;;;;;;44.70;23.15;;;;;;;5.61;91.68;97468.47;1744319;80;21066;-68
2022/11/04 08:14:31;;;;;;;42.08;22.17;;;;;;;5.71;91.77;97450.78;1742051;82;20964;-67
2022/11/04 08:16:58;;;;;;;42.33;22.15;;;;;;;5.82;91.26;97444.01;1741806;82;21027;-68
2022/11/04 08:19:25;;;;;;;41.30;21.70;;;;;;;5.91;91.24;97443.83;1742094;82;21001;-68
2022/11/04 08:21:52;;;;;;;45.12;22.52;;;;;;;6.01;91.43;97436.61;1741064;82;20947;-68
2022/11/04 08:24:18;;;;;;;47.62;22.93;;;;;;;6.13;91.22;97433.33;1742064;82;21426;-68
2022/11/04 08:26:46;;;;;;;42.33;21.80;;;;;;;6.23;91.00;97425.66;1742141;82;20913;-67
2022/11/04 08:29:12;;;;;;;42.03;21.90;;;;;;;6.36;91.37;97425.41;1741849;82;20952;-67
2022/11/04 08:31:39;;;;;;;39.50;21.37;;;;;;;6.47;90.39;97424.27;1741929;82;21425;-67
2022/11/04 08:34:07;;;;;;;43.10;21.62;;;;;;;6.54;90.10;97428.08;1735993;81;20956;-67
2022/11/04 08:36:37;;;;;;;43.13;21.65;;;;;;;6.62;90.27;97427.91;1741880;82;20921;-67
2022/11/04 08:39:06;;;;;;;43.38;22.45;;;;;;;6.65;88.49;97437.94;1742301;82;20968;-67
2022/11/04 08:41:34;;;;;;;41.63;21.62;;;;;;;6.72;89.81;97421.52;1741267;81;20964;-67
2022/11/04 08:44:02;;;;;;;39.13;21.48;;;;;;;6.82;90.12;97419.55;1741900;82;21000;-68
2022/11/04 08:46:34;;;;;;;37.63;21.57;;;;;;;6.92;89.33;97422.81;1741488;82;21401;-68
2022/11/04 08:49:01;;;;;;;39.42;20.65;;;;;;;6.97;89.31;97414.34;1740971;82;20980;-67
2022/11/04 08:51:30;;;;;;;44.27;22.52;;;;;;;7.07;89.31;97415.88;1742015;82;21393;-67
2022/11/04 08:53:58;;;;;;;40.30;23.10;;;;;;;7.17;88.24;97415.18;1742099;82;21011;-68
2022/11/04 08:56:32;;;;;;;40.48;20.85;;;;;;;7.24;88.33;97418.53;1742156;82;20963;-68
2022/11/04 08:59:03;;;;;;;42.13;22.07;;;;;;;7.28;87.66;97420.19;1742059;82;20984;-67
2022/11/04 09:01:35;;;;;;;42.43;20.82;;;;;;;7.37;88.50;97412.05;1741073;82;20944;-67
2022/11/04 09:04:03;;;;;;;37.30;21.30;;;;;;;7.54;88.38;97408.08;1742289;82;21433;-68
2022/11/04 09:06:34;;;;;;;42.67;21.05;;;;;;;7.70;88.19;97406.34;1742043;82;20960;-68
2022/11/04 09:09:03;;;;;;;39.65;20.60;;;;;;;7.88;89.03;97407.59;1742420;82;20944;-69
2022/11/04 09:11:32;;;;;;;38.80;21.60;;;;;;;8.12;88.96;97402.53;1744198;81;21371;-67
2022/11/04 09:14:00;;;;;;;44.60;20.27;;;;;;;8.31;88.51;97398.91;1742229;81;20960;-68
2022/11/04 09:16:30;;;;;;;39.67;20.68;;;;;;;8.55;88.44;97403.04;1741921;82;21027;-67
2022/11/04 09:18:58;;;;;;;35.13;20.30;;;;;;;8.77;88.15;97405.02;1742168;82;20960;-68
2022/11/04 09:21:26;;;;;;;37.33;21.05;;;;;;;8.84;87.54;97394.20;1742162;82;21402;-67
2022/11/04 09:23:54;;;;;;;33.38;20.37;;;;;;;9.02;86.87;97387.05;1741972;82;20967;-67
2022/11/04 09:26:22;;;;;;;35.98;21.52;;;;;;;9.10;85.74;97388.98;1742107;82;20991;-67
2022/11/04 09:28:55;;;;;;;37.50;21.90;;;;;;;9.16;87.04;97378.64;1741934;82;20925;-68
2022/11/04 09:31:25;;;;;;;32.73;19.67;;;;;;;9.25;86.10;97379.66;1741407;82;21150;-68
2022/11/04 09:33:54;;;;;;;38.08;20.60;;;;;;;9.32;85.11;97370.61;1742013;82;20949;-68
2022/11/04 09:36:22;;;;;;;45.45;23.98;;;;;;;9.44;84.65;97369.33;1728247;82;20991;-68
2022/11/04 09:38:48;;;;;;;32.00;16.52;;;;;;;9.59;85.71;97373.67;1742004;82;20964;-68
2022/11/04 09:41:46;;;;;;;30.17;16.05;;;;;;;9.74;85.33;97370.91;1741908;82;20968;-68
2022/11/04 09:44:40;;;;;;;30.60;16.42;;;;;;;9.93;85.58;97368.92;1741873;82;20967;-67
2022/11/04 09:47:10;;;;;;;28.35;16.30;;;;;;;10.10;83.56;97373.59;1742163;82;20956;-67
2022/11/04 09:49:41;;;;;;;26.27;15.65;;;;;;;10.19;82.99;97365.30;1742246;82;21262;-67
2022/11/04 09:52:17;;;;;;;31.40;16.57;;;;;;;10.28;81.74;97365.39;1742023;82;21035;-67
2022/11/04 09:55:05;;;;;;;30.57;15.83;;;;;;;10.42;82.47;97352.92;1741645;82;20956;-68
2022/11/04 09:57:32;;;;;;;28.23;15.65;;;;;;;10.57;82.76;97344.88;1741899;82;22122;-68
2022/11/04 10:00:00;;;;;;;34.18;18.07;;;;;;;10.65;80.16;97345.89;1741952;82;20956;-68
2022/11/04 10:02:43;;;;;;;34.43;19.25;;;;;;;10.69;81.50;97335.58;1742091;82;20933;-68
2022/11/04 10:05:16;;;;;;;35.03;16.60;;;;;;;10.73;79.64;97334.98;1741995;80;21381;-68
2022/11/04 10:08:28;;;;;;;36.00;17.12;;;;;;;10.75;79.04;97326.52;1742042;82;21607;-69
2022/11/04 10:11:09;;;;;;;42.55;19.10;;;;;;;10.78;79.45;97329.02;1733113;82;20972;-69
2022/11/04 10:14:07;;;;;;;30.97;18.05;;;;;;;10.82;76.80;97324.88;1758029;80;21015;-68
2022/11/04 10:16:50;;;;;;;29.52;17.85;;;;;;;10.89;78.19;97324.16;1764691;81;21369;-67
2022/11/04 10:19:43;;;;;;;36.08;17.50;;;;;;;10.99;78.30;97313.14;1765254;80;21491;-68
2022/11/04 10:22:34;;;;;;;36.48;17.67;;;;;;;11.06;78.83;97305.34;1764980;81;20927;-68
2022/11/04 10:25:09;;;;;;;32.48;17.00;;;;;;;11.13;76.61;97302.81;1765021;80;20998;-68
2022/11/04 10:27:40;;;;;;;35.17;17.80;;;;;;;11.35;77.88;97307.20;1765011;81;21411;-67
2022/11/04 10:30:20;;;;;;;35.92;17.52;;;;;;;11.99;78.04;97297.25;1764999;81;20986;-67
2022/11/04 10:33:22;;;;;;;31.30;17.75;;;;;;;12.70;74.60;97287.33;1765420;81;22181;-67
2022/11/04 10:35:56;;;;;;;31.37;16.35;;;;;;;13.07;73.25;97281.00;1764973;81;21395;-67
2022/11/04 10:38:43;;;;;;;29.87;17.57;;;;;;;13.06;72.26;97269.98;1758795;81;21007;-67
2022/11/04 10:41:37;;;;;;;28.35;16.17;;;;;;;13.02;73.16;97264.42;1703799;83;21021;-67
2022/11/04 10:44:27;;;;;;;32.67;17.30;;;;;;;12.98;71.07;97260.65;1765402;81;20931;-67
2022/11/04 10:47:35;;;;;;;29.23;16.25;;;;;;;13.08;72.48;97251.25;1765429;81;21353;-68
2022/11/04 10:50:26;;;;;;;32.80;16.77;;;;;;;13.13;70.98;97248.38;1764859;81;21515;-67
2022/11/04 10:52:56;;;;;;;32.35;17.67;;;;;;;12.99;68.58;97245.11;1760465;81;21479;-68
2022/11/04 10:56:09;;;;;;;36.50;20.32;;;;;;;12.92;70.87;97239.23;1747163;81;20967;-67
2022/11/04 10:58:44;;;;;;;33.48;17.75;;;;;;;12.84;68.40;97242.75;1765407;81;20927;-67
2022/11/04 11:01:32;;;;;;;34.05;17.62;;;;;;;12.99;70.09;97235.31;1764793;80;20993;-67
2022/11/04 11:04:01;;;;;;;31.77;17.37;;;;;;;13.18;69.17;97230.36;1736525;81;21006;-67
2022/11/04 11:06:34;;;;;;;34.58;18.35;;;;;;;13.51;69.42;97228.22;1765105;80;20996;-68
2022/11/04 11:09:24;;;;;;;29.12;16.75;;;;;;;13.70;68.00;97227.23;1765303;81;20927;-67
2022/11/04 11:11:51;;;;;;;29.23;17.00;;;;;;;13.84;68.29;97223.30;1767548;80;20975;-67
2022/11/04 11:14:29;;;;;;;32.35;17.15;;;;;;;13.91;67.20;97213.17;1737186;81;20991;-67
2022/11/04 11:17:18;;;;;;;32.60;17.05;;;;;;;14.02;67.21;97206.38;1764861;81;21014;-68
2022/11/04 11:20:06;;;;;;;30.20;15.88;;;;;;;13.96;67.55;97203.11;1765179;81;20936;-68
2022/11/04 11:22:40;;;;;;;30.82;15.95;;;;;;;14.01;66.83;97190.88;1747293;81;21006;-67
2022/11/04 11:25:35;;;;;;;35.92;18.15;;;;;;;14.03;66.20;97189.47;1765166;81;21539;-67
2022/11/04 11:28:08;;;;;;;33.70;18.27;;;;;;;13.95;65.71;97189.41;1765044;81;20963;-68
2022/11/04 11:30:46;;;;;;;32.43;17.17;;;;;;;13.99;66.81;97189.63;1765608;81;21030;-67
2022/11/04 11:33:25;;;;;;;32.58;17.45;;;;;;;14.45;63.23;97185.75;1697395;84;21453;-67
2022/11/04 11:36:03;;;;;;;39.10;16.48;;;;;;;14.82;64.92;97182.75;1759905;81;20983;-67
2022/11/04 11:38:33;;;;;;;34.92;17.67;;;;;;;15.67;62.39;97186.88;1765052;81;21376;-67
2022/11/04 11:41:10;;;;;;;28.85;15.93;;;;;;;16.25;59.79;97175.22;1764946;81;21026;-67
2022/11/04 11:43:42;;;;;;;25.48;15.48;;;;;;;16.91;57.53;97175.75;1762139;80;21030;-67
2022/11/04 11:46:09;;;;;;;28.30;16.00;;;;;;;17.52;53.81;97161.72;1764910;81;21369;-67
2022/11/04 11:48:42;;;;;;;28.35;15.35;;;;;;;17.99;55.11;97150.35;1765083;80;20955;-67
2022/11/04 11:51:14;;;;;;;30.32;16.32;;;;;;;18.29;50.31;97146.39;1765203;81;21396;-67
2022/11/04 11:54:02;;;;;;;26.68;15.28;;;;;;;18.43;53.48;97143.13;1737281;81;21002;-67
2022/11/04 11:56:42;;;;;;;25.82;15.93;;;;;;;18.89;54.56;97144.13;1764939;80;20979;-68
2022/11/04 11:59:18;;;;;;;29.05;14.95;;;;;;;18.84;53.73;97132.41;1764604;80;20947;-66
2022/11/04 12:01:59;;;;;;;26.57;14.65;;;;;;;18.57;48.45;97130.86;1764848;81;21011;-68
2022/11/04 12:04:25;;;;;;;26.17;14.15;;;;;;;18.72;52.14;97138.24;1764986;81;20920;-67
2022/11/04 12:07:26;;;;;;;25.37;14.53;;;;;;;18.65;50.42;97126.75;1765061;81;20983;-67
2022/11/04 12:10:19;;;;;;;22.13;14.83;;;;;;;18.63;51.20;97125.53;1764966;81;20971;-67
2022/11/04 12:13:15;;;;;;;23.47;13.55;;;;;;;18.50;49.37;97119.37;1766755;80;21073;-69
2022/11/04 12:16:02;;;;;;;23.20;13.03;;;;;;;18.25;49.36;97118.08;1740906;80;22058;-68
2022/11/04 12:19:26;;;;;;;30.68;15.00;;;;;;;17.71;51.52;97110.83;1765203;81;20959;-69
2022/11/04 12:22:16;;;;;;;26.30;13.93;;;;;;;17.00;52.51;97111.34;1764709;80;21014;-68
2022/11/04 12:25:07;;;;;;;27.70;15.78;;;;;;;16.58;54.31;97112.41;1764850;80;20994;-67
2022/11/04 12:27:51;;;;;;;24.30;13.72;;;;;;;16.25;54.33;97107.05;1747081;81;20978;-67